sensor_id;sensor_type;location;lat;lon;timestamp;pressure;altitude;pressure_sealevel;temperature;humidity
57234;BME280;43090;52.604;13.318;2023-03-03T00:01:44;101810.06;;;-0.20;100.00
57234;BME280;43090;52.604;13.318;2023-03-03T00:04:11;101818.91;;;-0.28;100.00
57234;BME280;43090;52.604;13.318;2023-03-03T00:06:37;101813.63;;;-0.27;100.00
57234;BME280;43090;52.604;13.318;2023-03-03T00:09:03;101806.28;;;0.08;100.00
57234;BME280;43090;52.604;13.318;2023-03-03T00:11:30;101815.00;;;0.16;100.00
57234;BME280;43090;52.604;13.318;2023-03-03T00:13:57;101812.34;;;0.14;100.00
57234;BME280;43090;52.604;13.318;2023-03-03T00:18:56;101788.56;;;0.25;100.00
57234;BME280;43090;52.604;13.318;2023-03-03T00:23:51;101792.19;;;0.15;100.00
57234;BME280;43090;52.604;13.318;2023-03-03T00:26:21;101798.56;;;-0.08;100.00
57234;BME280;43090;52.604;13.318;2023-03-03T00:28:49;101808.06;;;0.06;100.00
57234;BME280;43090;52.604;13.318;2023-03-03T00:31:20;101803.53;;;0.22;100.00
57234;BME280;43090;52.604;13.318;2023-03-03T00:33:50;101789.34;;;0.33;100.00
57234;BME280;43090;52.604;13.318;2023-03-03T00:36:27;101799.00;;;0.35;100.00
57234;BME280;43090;52.604;13.318;2023-03-03T00:39:44;101798.00;;;0.43;100.00
57234;BME280;43090;52.604;13.318;2023-03-03T00:41:45;101786.69;;;0.35;100.00
57234;BME280;43090;52.604;13.318;2023-03-03T00:46:56;101792.38;;;-0.04;100.00
57234;BME280;43090;52.604;13.318;2023-03-03T00:49:27;101780.16;;;-0.11;100.00
57234;BME280;43090;52.604;13.318;2023-03-03T00:51:53;101780.25;;;-0.22;100.00
57234;BME280;43090;52.604;13.318;2023-03-03T00:54:20;101781.22;;;-0.32;100.00
57234;BME280;43090;52.604;13.318;2023-03-03T00:56:46;101768.81;;;-0.19;100.00
57234;BME280;43090;52.604;13.318;2023-03-03T00:59:13;101765.09;;;0.02;100.00
57234;BME280;43090;52.604;13.318;2023-03-03T01:01:39;101779.84;;;0.17;100.00
57234;BME280;43090;52.604;13.318;2023-03-03T01:04:06;101762.50;;;0.01;100.00
57234;BME280;43090;52.604;13.318;2023-03-03T01:06:32;101777.97;;;0.30;100.00
57234;BME280;43090;52.604;13.318;2023-03-03T01:08:59;101781.50;;;0.27;100.00
57234;BME280;43090;52.604;13.318;2023-03-03T01:11:25;101782.22;;;0.42;100.00
57234;BME280;43090;52.604;13.318;2023-03-03T01:13:53;101774.59;;;0.17;100.00
57234;BME280;43090;52.604;13.318;2023-03-03T01:16:20;101773.59;;;0.27;100.00
57234;BME280;43090;52.604;13.318;2023-03-03T01:18:47;101773.56;;;0.32;100.00
57234;BME280;43090;52.604;13.318;2023-03-03T01:21:13;101774.31;;;0.42;100.00
57234;BME280;43090;52.604;13.318;2023-03-03T01:23:39;101759.34;;;0.45;100.00
57234;BME280;43090;52.604;13.318;2023-03-03T01:26:06;101763.75;;;0.42;100.00
57234;BME280;43090;52.604;13.318;2023-03-03T01:28:35;101764.53;;;0.50;100.00
57234;BME280;43090;52.604;13.318;2023-03-03T01:31:02;101763.81;;;0.39;100.00
57234;BME280;43090;52.604;13.318;2023-03-03T01:33:32;101754.75;;;0.61;100.00
57234;BME280;43090;52.604;13.318;2023-03-03T01:35:58;101748.94;;;0.35;100.00
57234;BME280;43090;52.604;13.318;2023-03-03T01:38:25;101748.72;;;0.50;100.00
57234;BME280;43090;52.604;13.318;2023-03-03T01:40:52;101736.66;;;0.30;100.00
57234;BME280;43090;52.604;13.318;2023-03-03T01:43:19;101745.19;;;0.51;100.00
57234;BME280;43090;52.604;13.318;2023-03-03T01:48:13;101730.41;;;0.39;100.00
57234;BME280;43090;52.604;13.318;2023-03-03T01:50:53;101731.25;;;0.43;100.00
57234;BME280;43090;52.604;13.318;2023-03-03T01:53:22;101742.63;;;0.48;100.00
57234;BME280;43090;52.604;13.318;2023-03-03T01:55:49;101733.81;;;0.49;100.00
57234;BME280;43090;52.604;13.318;2023-03-03T02:00:45;101739.03;;;0.52;100.00
57234;BME280;43090;52.604;13.318;2023-03-03T02:03:16;101739.09;;;0.49;100.00
57234;BME280;43090;52.604;13.318;2023-03-03T02:05:43;101745.47;;;0.29;100.00
57234;BME280;43090;52.604;13.318;2023-03-03T02:08:10;101747.94;;;0.43;100.00
57234;BME280;43090;52.604;13.318;2023-03-03T02:10:40;101741.84;;;0.40;100.00
57234;BME280;43090;52.604;13.318;2023-03-03T02:13:08;101748.03;;;0.36;100.00
57234;BME280;43090;52.604;13.318;2023-03-03T02:15:35;101749.78;;;0.37;100.00
57234;BME280;43090;52.604;13.318;2023-03-03T02:18:23;101748.13;;;0.29;100.00
57234;BME280;43090;52.604;13.318;2023-03-03T02:21:01;101749.94;;;0.24;100.00
57234;BME280;43090;52.604;13.318;2023-03-03T02:23:36;101757.75;;;0.30;100.00
57234;BME280;43090;52.604;13.318;2023-03-03T02:26:06;101748.97;;;0.31;100.00
57234;BME280;43090;52.604;13.318;2023-03-03T02:28:34;101749.94;;;0.24;100.00
57234;BME280;43090;52.604;13.318;2023-03-03T02:31:01;101749.16;;;0.14;100.00
57234;BME280;43090;52.604;13.318;2023-03-03T02:33:28;101750.03;;;0.15;100.00
57234;BME280;43090;52.604;13.318;2023-03-03T02:35:54;101744.81;;;0.10;100.00
57234;BME280;43090;52.604;13.318;2023-03-03T02:38:25;101754.50;;;0.08;100.00
57234;BME280;43090;52.604;13.318;2023-03-03T02:43:45;101746.44;;;0.22;100.00
57234;BME280;43090;52.604;13.318;2023-03-03T02:46:16;101753.41;;;0.26;100.00
57234;BME280;43090;52.604;13.318;2023-03-03T02:48:42;101760.47;;;0.24;100.00
57234;BME280;43090;52.604;13.318;2023-03-03T02:51:09;101758.59;;;0.34;100.00
57234;BME280;43090;52.604;13.318;2023-03-03T02:53:35;101750.66;;;0.36;100.00
57234;BME280;43090;52.604;13.318;2023-03-03T02:56:03;101745.50;;;0.28;100.00
57234;BME280;43090;52.604;13.318;2023-03-03T02:58:30;101760.72;;;-0.01;100.00
57234;BME280;43090;52.604;13.318;2023-03-03T03:00:56;101756.34;;;-0.02;100.00
57234;BME280;43090;52.604;13.318;2023-03-03T03:03:23;101761.41;;;0.20;100.00
57234;BME280;43090;52.604;13.318;2023-03-03T03:05:49;101754.50;;;0.10;100.00
57234;BME280;43090;52.604;13.318;2023-03-03T03:08:16;101754.44;;;0.13;100.00
57234;BME280;43090;52.604;13.318;2023-03-03T03:10:42;101755.28;;;0.16;100.00
57234;BME280;43090;52.604;13.318;2023-03-03T03:13:09;101759.56;;;0.24;100.00
57234;BME280;43090;52.604;13.318;2023-03-03T03:15:35;101772.88;;;0.13;100.00
57234;BME280;43090;52.604;13.318;2023-03-03T03:18:02;101775.50;;;0.14;100.00
57234;BME280;43090;52.604;13.318;2023-03-03T03:20:28;101785.06;;;0.23;100.00
57234;BME280;43090;52.604;13.318;2023-03-03T03:22:55;101786.81;;;0.21;100.00
57234;BME280;43090;52.604;13.318;2023-03-03T03:25:21;101786.84;;;0.23;100.00
57234;BME280;43090;52.604;13.318;2023-03-03T03:27:48;101782.47;;;0.20;100.00
57234;BME280;43090;52.604;13.318;2023-03-03T03:30:14;101782.47;;;0.17;100.00
57234;BME280;43090;52.604;13.318;2023-03-03T03:32:41;101784.19;;;0.24;100.00
57234;BME280;43090;52.604;13.318;2023-03-03T03:35:07;101786.06;;;0.11;100.00
57234;BME280;43090;52.604;13.318;2023-03-03T03:37:34;101774.69;;;0.08;100.00
57234;BME280;43090;52.604;13.318;2023-03-03T03:40:00;101769.34;;;0.15;100.00
57234;BME280;43090;52.604;13.318;2023-03-03T03:42:27;101772.97;;;0.07;100.00
57234;BME280;43090;52.604;13.318;2023-03-03T03:44:53;101764.13;;;0.12;100.00
57234;BME280;43090;52.604;13.318;2023-03-03T03:47:20;101764.97;;;0.13;100.00
57234;BME280;43090;52.604;13.318;2023-03-03T03:49:46;101766.72;;;0.14;100.00
57234;BME280;43090;52.604;13.318;2023-03-03T03:52:13;101764.91;;;0.19;100.00
57234;BME280;43090;52.604;13.318;2023-03-03T03:54:39;101755.38;;;0.09;100.00
57234;BME280;43090;52.604;13.318;2023-03-03T03:57:06;101751.78;;;0.14;100.00
57234;BME280;43090;52.604;13.318;2023-03-03T03:59:32;101751.00;;;0.06;100.00
57234;BME280;43090;52.604;13.318;2023-03-03T04:01:59;101746.59;;;0.10;100.00
57234;BME280;43090;52.604;13.318;2023-03-03T04:04:25;101743.28;;;-0.08;100.00
57234;BME280;43090;52.604;13.318;2023-03-03T04:06:52;101747.63;;;-0.04;100.00
57234;BME280;43090;52.604;13.318;2023-03-03T04:09:18;101753.28;;;-0.45;100.00
57234;BME280;43090;52.604;13.318;2023-03-03T04:11:45;101753.88;;;-0.19;100.00
57234;BME280;43090;52.604;13.318;2023-03-03T04:14:11;101745.91;;;-0.09;100.00
57234;BME280;43090;52.604;13.318;2023-03-03T04:16:37;101746.88;;;-0.18;100.00
57234;BME280;43090;52.604;13.318;2023-03-03T04:19:07;101749.44;;;-0.13;100.00
57234;BME280;43090;52.604;13.318;2023-03-03T04:21:33;101742.75;;;-0.45;100.00
57234;BME280;43090;52.604;13.318;2023-03-03T04:24:00;101739.06;;;-0.26;100.00
57234;BME280;43090;52.604;13.318;2023-03-03T04:26:26;101748.75;;;-0.29;100.00
57234;BME280;43090;52.604;13.318;2023-03-03T04:28:53;101739.13;;;-0.34;100.00
57234;BME280;43090;52.604;13.318;2023-03-03T04:31:19;101736.28;;;-0.13;100.00
57234;BME280;43090;52.604;13.318;2023-03-03T04:33:46;101738.81;;;-0.04;100.00
57234;BME280;43090;52.604;13.318;2023-03-03T04:36:12;101739.84;;;-0.14;100.00
57234;BME280;43090;52.604;13.318;2023-03-03T04:38:39;101739.88;;;-0.21;100.00
57234;BME280;43090;52.604;13.318;2023-03-03T04:41:09;101732.16;;;-0.38;100.00
57234;BME280;43090;52.604;13.318;2023-03-03T04:43:35;101739.91;;;-0.25;100.00
57234;BME280;43090;52.604;13.318;2023-03-03T04:46:02;101748.03;;;-0.47;100.00
57234;BME280;43090;52.604;13.318;2023-03-03T04:48:29;101742.56;;;-0.25;100.00
57234;BME280;43090;52.604;13.318;2023-03-03T04:50:55;101742.53;;;-0.21;100.00
57234;BME280;43090;52.604;13.318;2023-03-03T04:53:22;101750.69;;;-0.50;100.00
57234;BME280;43090;52.604;13.318;2023-03-03T04:55:49;101740.13;;;-0.47;100.00
57234;BME280;43090;52.604;13.318;2023-03-03T04:58:16;101731.25;;;-0.34;100.00
57234;BME280;43090;52.604;13.318;2023-03-03T05:00:52;101727.63;;;-0.23;100.00
57234;BME280;43090;52.604;13.318;2023-03-03T05:03:19;101728.47;;;-0.20;100.00
57234;BME280;43090;52.604;13.318;2023-03-03T05:05:46;101724.22;;;-0.35;100.00
57234;BME280;43090;52.604;13.318;2023-03-03T05:08:13;101719.72;;;-0.22;100.00
57234;BME280;43090;52.604;13.318;2023-03-03T05:10:39;101724.22;;;-0.31;100.00
57234;BME280;43090;52.604;13.318;2023-03-03T05:13:09;101727.63;;;-0.23;100.00
57234;BME280;43090;52.604;13.318;2023-03-03T05:15:36;101727.91;;;-0.51;100.00
57234;BME280;43090;52.604;13.318;2023-03-03T05:18:08;101717.31;;;-0.46;100.00
57234;BME280;43090;52.604;13.318;2023-03-03T05:20:42;101719.22;;;-0.62;100.00
57234;BME280;43090;52.604;13.318;2023-03-03T05:23:13;101738.69;;;-0.85;100.00
57234;BME280;43090;52.604;13.318;2023-03-03T05:25:40;101735.84;;;-0.59;100.00
57234;BME280;43090;52.604;13.318;2023-03-03T05:28:08;101733.31;;;-0.70;100.00
57234;BME280;43090;52.604;13.318;2023-03-03T05:30:35;101742.75;;;-0.47;100.00
57234;BME280;43090;52.604;13.318;2023-03-03T05:33:02;101747.03;;;-0.34;100.00
57234;BME280;43090;52.604;13.318;2023-03-03T05:35:29;101755.78;;;-0.30;100.00
57234;BME280;43090;52.604;13.318;2023-03-03T05:38:02;101741.72;;;-0.27;100.00
57234;BME280;43090;52.604;13.318;2023-03-03T05:40:35;101749.63;;;-0.32;100.00
57234;BME280;43090;52.604;13.318;2023-03-03T05:43:04;101747.81;;;-0.25;100.00
57234;BME280;43090;52.604;13.318;2023-03-03T05:45:32;101750.50;;;-0.28;100.00
57234;BME280;43090;52.604;13.318;2023-03-03T05:48:00;101753.00;;;-0.18;100.00
57234;BME280;43090;52.604;13.318;2023-03-03T05:50:29;101757.59;;;-0.37;100.00
57234;BME280;43090;52.604;13.318;2023-03-03T05:52:56;101752.34;;;-0.40;100.00
57234;BME280;43090;52.604;13.318;2023-03-03T05:55:23;101758.44;;;-0.35;100.00
57234;BME280;43090;52.604;13.318;2023-03-03T05:57:57;101763.69;;;-0.31;100.00
57234;BME280;43090;52.604;13.318;2023-03-03T06:00:24;101761.03;;;-0.28;100.00
57234;BME280;43090;52.604;13.318;2023-03-03T06:02:53;101753.97;;;-0.28;100.00
57234;BME280;43090;52.604;13.318;2023-03-03T06:05:20;101759.38;;;-0.42;100.00
57234;BME280;43090;52.604;13.318;2023-03-03T06:07:47;101757.53;;;-0.29;100.00
57234;BME280;43090;52.604;13.318;2023-03-03T06:10:13;101761.03;;;-0.28;100.00
57234;BME280;43090;52.604;13.318;2023-03-03T06:12:40;101769.81;;;-0.31;100.00
57234;BME280;43090;52.604;13.318;2023-03-03T06:15:09;101768.09;;;-0.35;100.00
57234;BME280;43090;52.604;13.318;2023-03-03T06:17:38;101767.31;;;-0.46;100.00
57234;BME280;43090;52.604;13.318;2023-03-03T06:20:13;101777.78;;;-0.40;100.00
57234;BME280;43090;52.604;13.318;2023-03-03T06:22:39;101761.09;;;-0.36;100.00
57234;BME280;43090;52.604;13.318;2023-03-03T06:25:07;101772.50;;;-0.36;100.00
57234;BME280;43090;52.604;13.318;2023-03-03T06:27:34;101779.47;;;-0.31;100.00
57234;BME280;43090;52.604;13.318;2023-03-03T06:30:00;101777.91;;;-0.53;100.00
57234;BME280;43090;52.604;13.318;2023-03-03T06:32:29;101774.53;;;-0.72;100.00
57234;BME280;43090;52.604;13.318;2023-03-03T06:34:56;101778.09;;;-0.79;100.00
57234;BME280;43090;52.604;13.318;2023-03-03T06:37:27;101781.44;;;-0.58;100.00
57234;BME280;43090;52.604;13.318;2023-03-03T06:40:27;101777.88;;;-0.51;100.00
57234;BME280;43090;52.604;13.318;2023-03-03T06:43:00;101781.28;;;-0.37;100.00
57234;BME280;43090;52.604;13.318;2023-03-03T06:45:31;101780.56;;;-0.54;100.00
57234;BME280;43090;52.604;13.318;2023-03-03T06:48:07;101785.09;;;-0.75;100.00
57234;BME280;43090;52.604;13.318;2023-03-03T06:50:34;101783.13;;;-0.48;100.00
57234;BME280;43090;52.604;13.318;2023-03-03T06:53:01;101789.25;;;-0.49;100.00
57234;BME280;43090;52.604;13.318;2023-03-03T06:55:45;101800.84;;;-0.73;100.00
57234;BME280;43090;52.604;13.318;2023-03-03T06:58:29;101802.47;;;-0.55;100.00
57234;BME280;43090;52.604;13.318;2023-03-03T07:01:16;101814.16;;;-0.96;100.00
57234;BME280;43090;52.604;13.318;2023-03-03T07:04:09;101811.38;;;-0.75;100.00
57234;BME280;43090;52.604;13.318;2023-03-03T07:06:38;101812.88;;;-0.38;100.00
57234;BME280;43090;52.604;13.318;2023-03-03T07:09:19;101818.16;;;-0.43;100.00
57234;BME280;43090;52.604;13.318;2023-03-03T07:12:11;101803.97;;;-0.25;100.00
57234;BME280;43090;52.604;13.318;2023-03-03T07:14:47;101810.06;;;-0.20;100.00
57234;BME280;43090;52.604;13.318;2023-03-03T07:17:58;101809.03;;;-0.03;100.00
57234;BME280;43090;52.604;13.318;2023-03-03T07:24:16;101822.19;;;0.00;100.00
57234;BME280;43090;52.604;13.318;2023-03-03T07:26:46;101821.22;;;0.07;100.00
57234;BME280;43090;52.604;13.318;2023-03-03T07:29:26;101820.34;;;0.08;100.00
57234;BME280;43090;52.604;13.318;2023-03-03T07:36:30;101827.38;;;0.05;100.00
57234;BME280;43090;52.604;13.318;2023-03-03T07:44:59;101840.56;;;0.03;100.00
57234;BME280;43090;52.604;13.318;2023-03-03T07:48:35;101838.06;;;-0.08;100.00
57234;BME280;43090;52.604;13.318;2023-03-03T07:51:57;101831.66;;;0.18;100.00
57234;BME280;43090;52.604;13.318;2023-03-03T07:54:34;101843.97;;;0.16;100.00
57234;BME280;43090;52.604;13.318;2023-03-03T08:08:47;101849.09;;;0.30;100.00
57234;BME280;43090;52.604;13.318;2023-03-03T08:15:40;101841.81;;;0.52;100.00
57234;BME280;43090;52.604;13.318;2023-03-03T08:18:27;101834.75;;;0.54;100.00
57234;BME280;43090;52.604;13.318;2023-03-03T08:21:00;101837.31;;;0.62;100.00
57234;BME280;43090;52.604;13.318;2023-03-03T08:23:28;101832.94;;;0.59;100.00
57234;BME280;43090;52.604;13.318;2023-03-03T08:26:15;101840.72;;;0.72;100.00
57234;BME280;43090;52.604;13.318;2023-03-03T08:29:15;101833.84;;;0.57;100.00
57234;BME280;43090;52.604;13.318;2023-03-03T08:31:42;101835.66;;;0.53;100.00
57234;BME280;43090;52.604;13.318;2023-03-03T08:34:17;101841.63;;;0.69;100.00
57234;BME280;43090;52.604;13.318;2023-03-03T08:44:34;101837.84;;;0.90;100.00
57234;BME280;43090;52.604;13.318;2023-03-03T08:47:11;101837.78;;;0.95;100.00
57234;BME280;43090;52.604;13.318;2023-03-03T08:49:38;101844.97;;;0.82;100.00
57234;BME280;43090;52.604;13.318;2023-03-03T08:52:06;101842.38;;;0.79;100.00
57234;BME280;43090;52.604;13.318;2023-03-03T08:54:33;101839.75;;;0.77;100.00
57234;BME280;43090;52.604;13.318;2023-03-03T08:56:59;101851.88;;;0.92;100.00
57234;BME280;43090;52.604;13.318;2023-03-03T08:59:25;101845.66;;;0.98;100.00
57234;BME280;43090;52.604;13.318;2023-03-03T09:01:52;101847.81;;;0.63;100.00
57234;BME280;43090;52.604;13.318;2023-03-03T09:04:18;101832.16;;;0.51;100.00
57234;BME280;43090;52.604;13.318;2023-03-03T09:06:45;101834.53;;;0.73;100.00
57234;BME280;43090;52.604;13.318;2023-03-03T09:09:11;101819.53;;;0.78;100.00
57234;BME280;43090;52.604;13.318;2023-03-03T09:11:38;101829.94;;;0.87;100.00
57234;BME280;43090;52.604;13.318;2023-03-03T09:14:14;101828.22;;;0.86;100.00
57234;BME280;43090;52.604;13.318;2023-03-03T09:16:59;101829.94;;;0.87;100.00
57234;BME280;43090;52.604;13.318;2023-03-03T09:19:54;101838.56;;;1.02;100.00
57234;BME280;43090;52.604;13.318;2023-03-03T09:22:31;101835.56;;;0.59;100.00
57234;BME280;43090;52.604;13.318;2023-03-03T09:25:01;101838.78;;;0.86;100.00
57234;BME280;43090;52.604;13.318;2023-03-03T09:27:37;101833.25;;;1.03;100.00
57234;BME280;43090;52.604;13.318;2023-03-03T09:30:26;101833.50;;;0.86;100.00
57234;BME280;43090;52.604;13.318;2023-03-03T09:32:55;101827.31;;;0.90;100.00
57234;BME280;43090;52.604;13.318;2023-03-03T09:35:31;101836.69;;;1.08;100.00
57234;BME280;43090;52.604;13.318;2023-03-03T09:38:01;101842.00;;;1.07;100.00
57234;BME280;43090;52.604;13.318;2023-03-03T09:43:35;101836.25;;;0.78;100.00
57234;BME280;43090;52.604;13.318;2023-03-03T09:46:15;101837.97;;;0.81;100.00
57234;BME280;43090;52.604;13.318;2023-03-03T09:48:50;101834.78;;;1.21;100.00
57234;BME280;43090;52.604;13.318;2023-03-03T09:51:29;101833.59;;;1.42;100.00
57234;BME280;43090;52.604;13.318;2023-03-03T09:54:02;101833.66;;;1.36;99.99
57234;BME280;43090;52.604;13.318;2023-03-03T09:56:34;101831.09;;;1.31;99.38
57234;BME280;43090;52.604;13.318;2023-03-03T09:59:20;101838.41;;;1.14;100.00
57234;BME280;43090;52.604;13.318;2023-03-03T10:12:29;101842.38;;;1.44;99.13
57234;BME280;43090;52.604;13.318;2023-03-03T10:17:47;101836.94;;;1.52;98.97
57234;BME280;43090;52.604;13.318;2023-03-03T10:21:00;101831.66;;;1.54;98.70
57234;BME280;43090;52.604;13.318;2023-03-03T10:25:49;101834.38;;;1.47;98.26
57234;BME280;43090;52.604;13.318;2023-03-03T10:28:44;101831.50;;;1.61;98.70
57234;BME280;43090;52.604;13.318;2023-03-03T10:31:23;101841.84;;;1.75;98.54
57234;BME280;43090;52.604;13.318;2023-03-03T10:41:53;101833.28;;;1.61;98.00
57234;BME280;43090;52.604;13.318;2023-03-03T10:44:40;101839.09;;;1.83;98.75
57234;BME280;43090;52.604;13.318;2023-03-03T10:47:22;101834.22;;;1.58;99.24
57234;BME280;43090;52.604;13.318;2023-03-03T11:02:48;101848.78;;;1.81;97.61
57234;BME280;43090;52.604;13.318;2023-03-03T11:07:54;101837.72;;;2.10;97.13
57234;BME280;43090;52.604;13.318;2023-03-03T11:13:20;101827.16;;;2.10;97.99
57234;BME280;43090;52.604;13.318;2023-03-03T11:21:25;101826.63;;;2.40;96.52
57234;BME280;43090;52.604;13.318;2023-03-03T11:24:14;101830.63;;;2.14;96.32
57234;BME280;43090;52.604;13.318;2023-03-03T11:29:33;101836.34;;;2.38;96.02
57234;BME280;43090;52.604;13.318;2023-03-03T11:44:28;101828.59;;;1.78;96.58
57234;BME280;43090;52.604;13.318;2023-03-03T11:46:57;101825.56;;;2.02;96.25
57234;BME280;43090;52.604;13.318;2023-03-03T11:52:04;101818.63;;;1.94;98.16
57234;BME280;43090;52.604;13.318;2023-03-03T11:54:41;101809.44;;;2.15;97.64
57234;BME280;43090;52.604;13.318;2023-03-03T11:57:17;101807.56;;;2.22;96.70
57234;BME280;43090;52.604;13.318;2023-03-03T11:59:47;101816.00;;;2.41;95.98
57234;BME280;43090;52.604;13.318;2023-03-03T12:04:52;101801.72;;;2.05;96.00
57234;BME280;43090;52.604;13.318;2023-03-03T12:12:23;101794.41;;;2.19;96.66
57234;BME280;43090;52.604;13.318;2023-03-03T12:15:00;101792.81;;;2.10;96.52
57234;BME280;43090;52.604;13.318;2023-03-03T12:20:17;101773.09;;;2.28;96.96
57234;BME280;43090;52.604;13.318;2023-03-03T12:25:37;101779.94;;;2.39;96.46
57234;BME280;43090;52.604;13.318;2023-03-03T12:28:10;101771.91;;;2.45;96.58
57234;BME280;43090;52.604;13.318;2023-03-03T12:30:58;101764.06;;;2.39;96.19
57234;BME280;43090;52.604;13.318;2023-03-03T12:33:33;101777.47;;;2.29;95.96
57234;BME280;43090;52.604;13.318;2023-03-03T12:36:11;101770.97;;;2.46;96.42
57234;BME280;43090;52.604;13.318;2023-03-03T12:42:15;101763.84;;;2.49;96.40
57234;BME280;43090;52.604;13.318;2023-03-03T12:47:15;101759.84;;;2.30;97.66
57234;BME280;43090;52.604;13.318;2023-03-03T12:52:58;101755.53;;;2.26;97.77
57234;BME280;43090;52.604;13.318;2023-03-03T12:55:47;101755.06;;;2.49;96.79
57234;BME280;43090;52.604;13.318;2023-03-03T12:58:34;101755.19;;;2.43;97.12
57234;BME280;43090;52.604;13.318;2023-03-03T13:06:31;101745.47;;;2.43;97.95
57234;BME280;43090;52.604;13.318;2023-03-03T13:19:46;101740.06;;;2.49;96.90
57234;BME280;43090;52.604;13.318;2023-03-03T13:22:17;101728.00;;;2.77;96.24
57234;BME280;43090;52.604;13.318;2023-03-03T13:27:24;101732.25;;;2.84;95.20
57234;BME280;43090;52.604;13.318;2023-03-03T13:29:55;101723.34;;;2.88;95.00
57234;BME280;43090;52.604;13.318;2023-03-03T13:35:14;101722.63;;;3.19;94.35
57234;BME280;43090;52.604;13.318;2023-03-03T13:37:47;101716.41;;;3.20;93.99
57234;BME280;43090;52.604;13.318;2023-03-03T13:40:22;101714.06;;;3.08;93.84
57234;BME280;43090;52.604;13.318;2023-03-03T13:43:04;101719.75;;;2.91;94.39
57234;BME280;43090;52.604;13.318;2023-03-03T13:48:27;101705.03;;;2.79;95.77
57234;BME280;43090;52.604;13.318;2023-03-03T13:50:57;101704.16;;;2.78;94.44
57234;BME280;43090;52.604;13.318;2023-03-03T13:56:21;101699.75;;;2.79;95.00
57234;BME280;43090;52.604;13.318;2023-03-03T13:59:00;101693.50;;;2.81;95.30
57234;BME280;43090;52.604;13.318;2023-03-03T14:01:37;101698.53;;;2.94;95.25
57234;BME280;43090;52.604;13.318;2023-03-03T14:04:16;101699.69;;;2.82;96.02
57234;BME280;43090;52.604;13.318;2023-03-03T14:13:07;101685.00;;;3.06;93.98
57234;BME280;43090;52.604;13.318;2023-03-03T14:25:52;101675.75;;;3.24;92.00
57234;BME280;43090;52.604;13.318;2023-03-03T14:28:23;101666.91;;;3.24;91.82
57234;BME280;43090;52.604;13.318;2023-03-03T14:30:59;101669.22;;;3.02;93.21
57234;BME280;43090;52.604;13.318;2023-03-03T14:33:34;101674.59;;;2.98;93.23
57234;BME280;43090;52.604;13.318;2023-03-03T14:36:02;101672.41;;;3.16;92.66
57234;BME280;43090;52.604;13.318;2023-03-03T14:41:11;101664.53;;;3.13;94.86
57234;BME280;43090;52.604;13.318;2023-03-03T14:43:39;101661.78;;;3.17;94.24
57234;BME280;43090;52.604;13.318;2023-03-03T14:49:15;101650.13;;;3.25;94.30
57234;BME280;43090;52.604;13.318;2023-03-03T14:51:43;101647.59;;;3.20;94.55
57234;BME280;43090;52.604;13.318;2023-03-03T14:58:39;101644.34;;;3.43;93.39
57234;BME280;43090;52.604;13.318;2023-03-03T15:01:07;101642.22;;;3.23;92.68
57234;BME280;43090;52.604;13.318;2023-03-03T15:03:38;101639.50;;;3.26;93.39
57234;BME280;43090;52.604;13.318;2023-03-03T15:06:12;101634.75;;;3.39;93.34
57234;BME280;43090;52.604;13.318;2023-03-03T15:09:38;101633.16;;;3.33;92.82
57234;BME280;43090;52.604;13.318;2023-03-03T15:11:57;101630.84;;;3.53;92.93
57234;BME280;43090;52.604;13.318;2023-03-03T15:14:34;101624.88;;;3.46;92.64
57234;BME280;43090;52.604;13.318;2023-03-03T15:17:26;101631.69;;;3.55;93.00
57234;BME280;43090;52.604;13.318;2023-03-03T15:38:40;101605.34;;;3.50;93.65
57234;BME280;43090;52.604;13.318;2023-03-03T15:41:13;101600.03;;;3.50;93.80
57234;BME280;43090;52.604;13.318;2023-03-03T15:44:04;101594.47;;;3.59;93.49
57234;BME280;43090;52.604;13.318;2023-03-03T15:57:04;101589.94;;;3.31;93.21
57234;BME280;43090;52.604;13.318;2023-03-03T16:03:12;101593.25;;;3.40;93.39
57234;BME280;43090;52.604;13.318;2023-03-03T16:19:20;101576.66;;;3.33;93.61
57234;BME280;43090;52.604;13.318;2023-03-03T16:23:03;101586.97;;;3.11;93.75
57234;BME280;43090;52.604;13.318;2023-03-03T16:29:45;101576.59;;;3.03;95.50
57234;BME280;43090;52.604;13.318;2023-03-03T18:12:43;101554.50;;;2.33;100.00
57234;BME280;43090;52.604;13.318;2023-03-03T18:25:10;101538.44;;;2.43;100.00
57234;BME280;43090;52.604;13.318;2023-03-03T18:27:43;101540.06;;;2.48;100.00
57234;BME280;43090;52.604;13.318;2023-03-03T18:35:36;101533.75;;;2.54;100.00
57234;BME280;43090;52.604;13.318;2023-03-03T18:57:16;101525.50;;;2.66;100.00
57234;BME280;43090;52.604;13.318;2023-03-03T19:00:30;101523.84;;;2.62;100.00
57234;BME280;43090;52.604;13.318;2023-03-03T19:20:41;101509.97;;;2.54;100.00
57234;BME280;43090;52.604;13.318;2023-03-03T19:23:13;101504.41;;;2.65;100.00
57234;BME280;43090;52.604;13.318;2023-03-03T19:25:42;101510.78;;;2.56;100.00
57234;BME280;43090;52.604;13.318;2023-03-03T19:34:06;101501.81;;;2.62;100.00
57234;BME280;43090;52.604;13.318;2023-03-03T19:50:20;101510.13;;;2.82;100.00
57234;BME280;43090;52.604;13.318;2023-03-03T20:23:01;101487.31;;;2.78;99.70
57234;BME280;43090;52.604;13.318;2023-03-03T21:27:09;101444.84;;;2.83;91.81
57234;BME280;43090;52.604;13.318;2023-03-03T21:29:51;101450.38;;;2.74;91.66
57234;BME280;43090;52.604;13.318;2023-03-03T21:32:37;101441.75;;;2.67;92.27
57234;BME280;43090;52.604;13.318;2023-03-03T21:35:09;101442.44;;;2.75;91.31
57234;BME280;43090;52.604;13.318;2023-03-03T21:37:52;101442.38;;;2.77;91.69
57234;BME280;43090;52.604;13.318;2023-03-03T21:40:34;101448.00;;;2.64;92.12